Driver, AR (72329)

11:33 PM CDT on July 29, 2016 (GMT -0500)
Dolan Ridge | | Change Station

Elev 433 ft 35.47 °N, 89.90 °W | Updated 6 seconds ago

Mostly Cloudy
Mostly Cloudy
72.0 °F
Feels Like 72.0 °F
N
0.0
Wind Variable Wind from South
Gusts 0.0 mph

Today
High -- | Low -- °F
--% Chance of Precip.
Yesterday
High -- | Low -- °F
Precip. -- in
Pressure 29.97 in
Visibility 10.0 miles
Clouds Mostly Cloudy 20000 ft
Dew Point 71 °F
Humidity 96%
Rainfall in
Snow Depth Not available.
6:06 AM 8:05 PM
Waning Crescent, 16% visible
METAR KNQA 300350Z 00000KT 10SM BKN200 23/23 A2997
Pressure 29.97 in
Visibility 10.0 miles
Clouds Mostly Cloudy 20000 ft
Dew Point 71 °F
Humidity 96%
Rainfall in
Snow Depth Not available.
6:06 AM 8:05 PM
Waning Crescent, 16% visible
METAR KNQA 300350Z 00000KT 10SM BKN200 23/23 A2997

10-Day Weather Forecast

Almanac

Astronomy

Jul. 29, 2016 Rise Set
Actual Time
Civil Twilight
Nautical Twilight
Astronomical Twilight
Moon
Length of Visible Light
Length of Day
Tomorrow will be .
, % of the Moon is Illuminated

Today's Extremes

State Highs State Lows

Community

WunderPhotos

Upload Photos

1,928,506 photos uploaded!

WunderBlog® & News

Nearby

Air Quality

  Air Quality AQ Index Pollutant
Not available.

Snow Depth

Station Depth Elevation

Earthquake Activity

City Distance Mag. Time & Date
Minimum magnitude displayed is 2.5.

Coastal Water Temperatures

Place Temperature

Stations

Nearby Weather Stations

Station Location Temp. Windchill Dew Point Humidity Wind Precip. Elev Updated Type
                   

Watches & Warnings

There are currently no watches in effect.